Time;durP1;ratioP1;P1;durP2;ratioP2;P2;SDS_P1;SDS_P2;PMS_P1;PMS_P2;Temp;Humidity;BMP_temperature;BMP_pressure;BME280_temperature;BME280_humidity;BME280_pressure;Samples;Min_cycle;Max_cycle;Signal;HPM_P1;HPM_P2
2021/09/16 00:01:15;;;;;;;57.15;19.00;;;;;;;7.43;100.00;101192.22;1789581;80;20964;-84
2021/09/16 00:03:41;;;;;;;58.85;20.08;;;;;;;7.42;100.00;101199.97;1789749;80;21285;-85
2021/09/16 00:06:07;;;;;;;52.45;17.85;;;;;;;7.40;100.00;101204.20;1795825;78;20903;-85
2021/09/16 00:08:33;;;;;;;63.08;20.82;;;;;;;7.40;100.00;101214.92;1793932;80;20960;-85
2021/09/16 00:10:58;;;;;;;53.95;19.73;;;;;;;7.34;100.00;101205.63;1793966;80;21613;-83
2021/09/16 00:13:24;;;;;;;64.47;18.77;;;;;;;7.34;100.00;101205.63;1794003;80;20951;-84
2021/09/16 00:15:50;;;;;;;60.80;20.55;;;;;;;7.32;100.00;101203.68;1793993;80;21744;-85
2021/09/16 00:18:16;;;;;;;64.00;19.70;;;;;;;7.30;100.00;101205.26;1793807;80;20955;-85
2021/09/16 00:20:42;;;;;;;62.23;20.08;;;;;;;7.32;100.00;101202.34;1793856;80;21295;-85
2021/09/16 00:23:09;;;;;;;52.60;19.77;;;;;;;7.30;100.00;101199.08;1793830;80;20912;-85
2021/09/16 00:25:35;;;;;;;52.93;19.55;;;;;;;7.27;100.00;101199.00;1731301;82;21550;-85
2021/09/16 00:28:01;;;;;;;53.90;20.00;;;;;;;7.26;100.00;101194.66;1758331;81;21329;-84
2021/09/16 00:30:27;;;;;;;53.75;19.95;;;;;;;7.26;100.00;101194.66;1758004;81;21044;-86
2021/09/16 00:32:53;;;;;;;55.92;19.85;;;;;;;7.23;100.00;101198.60;1758204;81;21005;-85
2021/09/16 00:35:20;;;;;;;44.25;16.90;;;;;;;7.21;100.00;101198.03;1758243;81;20885;-85
2021/09/16 00:37:46;;;;;;;56.18;18.62;;;;;;;7.19;100.00;101201.44;1716512;81;21110;-85
2021/09/16 00:40:13;;;;;;;43.30;17.85;;;;;;;7.13;100.00;101198.31;1757410;81;21646;-85
2021/09/16 00:42:40;;;;;;;54.18;17.27;;;;;;;7.13;100.00;101198.31;1745567;82;21092;-85
2021/09/16 00:45:06;;;;;;;52.10;16.20;;;;;;;7.15;100.00;101198.11;1745842;82;21160;-86
2021/09/16 00:47:33;;;;;;;50.10;17.48;;;;;;;7.16;100.00;101203.23;1746145;82;21014;-86
2021/09/16 00:49:58;;;;;;;49.25;16.60;;;;;;;7.16;100.00;101196.53;1745869;82;21581;-86
2021/09/16 00:52:25;;;;;;;41.83;15.35;;;;;;;7.12;100.00;101207.41;1746021;81;21011;-87
2021/09/16 00:54:54;;;;;;;45.70;15.13;;;;;;;7.07;100.00;101199.20;1746099;82;21037;-85
2021/09/16 00:57:23;;;;;;;42.20;15.58;;;;;;;7.07;100.00;101200.55;1783173;80;21458;-86
2021/09/16 00:59:50;;;;;;;54.15;15.75;;;;;;;7.03;100.00;101200.17;1760264;81;21048;-86
2021/09/16 01:02:16;;;;;;;49.10;15.80;;;;;;;7.00;100.00;101206.47;1769033;80;21005;-86
2021/09/16 01:04:41;;;;;;;44.60;13.78;;;;;;;6.99;100.00;101202.16;1768963;80;21144;-86
2021/09/16 01:07:13;;;;;;;40.15;14.60;;;;;;;6.99;100.00;101192.26;1793026;80;20954;-86
2021/09/16 01:09:43;;;;;;;44.20;14.50;;;;;;;6.92;100.00;101204.91;1759863;80;21048;-86
2021/09/16 01:12:10;;;;;;;38.10;13.80;;;;;;;6.89;100.00;101203.20;1703941;84;21600;-85
2021/09/16 01:14:36;;;;;;;49.35;15.55;;;;;;;6.91;100.00;101211.31;1704081;84;21111;-86
2021/09/16 01:17:03;;;;;;;37.78;14.38;;;;;;;6.90;100.00;101210.19;1704007;83;21869;-87
2021/09/16 01:19:29;;;;;;;45.92;16.23;;;;;;;6.85;100.00;101214.84;1703988;83;21412;-86
2021/09/16 01:21:55;;;;;;;46.28;14.83;;;;;;;6.82;100.00;101213.45;1704059;84;21027;-86
2021/09/16 01:24:22;;;;;;;43.92;15.08;;;;;;;6.83;100.00;101213.75;1703986;83;21019;-85
2021/09/16 01:26:48;;;;;;;41.65;14.50;;;;;;;6.79;100.00;101219.25;1703776;83;21519;-87
2021/09/16 01:29:15;;;;;;;34.20;12.98;;;;;;;6.74;100.00;101216.92;1700130;84;21173;-86
2021/09/16 01:31:50;;;;;;;44.55;13.95;;;;;;;6.70;100.00;101220.54;1704363;83;21008;-86
2021/09/16 01:34:18;;;;;;;39.20;14.07;;;;;;;6.66;100.00;101218.01;1704002;83;21012;-86
2021/09/16 01:36:48;;;;;;;41.60;14.13;;;;;;;6.62;100.00;101215.48;1704011;84;21049;-86
2021/09/16 01:39:17;;;;;;;39.13;13.62;;;;;;;6.59;100.00;101212.71;1680553;84;21070;-86
2021/09/16 01:41:43;;;;;;;40.12;14.28;;;;;;;6.59;100.00;101218.59;1718768;83;21142;-86
2021/09/16 01:44:09;;;;;;;41.85;14.40;;;;;;;6.59;100.00;101221.27;1730586;82;20974;-87
2021/09/16 01:46:36;;;;;;;47.80;14.33;;;;;;;6.58;100.00;101220.42;1699988;84;21066;-87
2021/09/16 01:49:03;;;;;;;43.10;13.95;;;;;;;6.59;100.00;101215.39;1700021;84;21105;-87
2021/09/16 01:51:32;;;;;;;42.58;14.35;;;;;;;6.56;100.00;101216.34;1714648;83;21049;-85
2021/09/16 01:53:58;;;;;;;40.00;13.65;;;;;;;6.53;100.00;101210.91;1730654;82;21096;-86
2021/09/16 01:56:24;;;;;;;40.90;13.40;;;;;;;6.52;100.00;101207.09;1714683;83;20999;-86
2021/09/16 01:58:50;;;;;;;47.25;15.05;;;;;;;6.52;100.00;101215.94;1730716;82;21137;-86
2021/09/16 02:01:16;;;;;;;43.75;15.05;;;;;;;6.50;100.00;101216.70;1714706;83;21573;-86
2021/09/16 02:03:42;;;;;;;43.83;15.05;;;;;;;6.50;100.00;101217.19;1730723;81;21532;-86
2021/09/16 02:06:08;;;;;;;44.77;15.45;;;;;;;6.48;100.00;101216.61;1714665;83;21104;-85
2021/09/16 02:08:34;;;;;;;41.25;16.67;;;;;;;6.49;100.00;101214.22;1754196;80;21369;-86
2021/09/16 02:11:00;;;;;;;45.73;14.87;;;;;;;6.50;100.00;101218.04;1794273;80;20869;-86
2021/09/16 02:13:28;;;;;;;54.42;15.55;;;;;;;6.48;100.00;101212.59;1794641;80;20932;-86
2021/09/16 02:15:54;;;;;;;41.50;15.85;;;;;;;6.49;100.00;101215.56;1794002;80;21637;-86
2021/09/16 02:18:20;;;;;;;42.67;16.45;;;;;;;6.49;100.00;101215.56;1794248;80;21539;-85
2021/09/16 02:20:46;;;;;;;48.95;16.48;;;;;;;6.49;100.00;101214.22;1794034;80;20880;-86
2021/09/16 02:23:12;;;;;;;45.73;16.52;;;;;;;6.47;100.00;101221.64;1794334;80;20975;-86
2021/09/16 02:25:38;;;;;;;47.33;17.85;;;;;;;6.50;100.00;101226.07;1794093;80;21050;-87
2021/09/16 02:28:04;;;;;;;43.05;15.85;;;;;;;6.50;100.00;101220.72;1794263;80;21503;-87
2021/09/16 02:30:30;;;;;;;44.05;16.73;;;;;;;6.51;100.00;101222.87;1794443;80;21344;-85
2021/09/16 02:32:56;;;;;;;41.15;16.82;;;;;;;6.50;100.00;101226.07;1794170;80;20881;-86
2021/09/16 02:35:22;;;;;;;46.68;17.23;;;;;;;6.52;100.00;101221.82;1794154;80;21601;-87
2021/09/16 02:37:48;;;;;;;44.18;18.48;;;;;;;6.52;100.00;101221.30;1794096;80;20900;-86
2021/09/16 02:40:14;;;;;;;44.08;17.40;;;;;;;6.54;100.00;101219.75;1794255;80;21032;-87
2021/09/16 02:42:46;;;;;;;44.40;17.70;;;;;;;6.50;100.00;101219.38;1774696;80;21070;-87
2021/09/16 02:45:12;;;;;;;42.88;17.62;;;;;;;6.51;100.00;101221.53;1761698;81;21021;-87
2021/09/16 02:47:38;;;;;;;45.48;18.07;;;;;;;6.52;100.00;101220.48;1793238;80;21033;-87
2021/09/16 02:50:05;;;;;;;43.70;17.73;;;;;;;6.53;100.00;101219.44;1761738;81;21535;-87
2021/09/16 02:52:30;;;;;;;53.28;19.02;;;;;;;6.50;100.00;101218.53;1793289;78;21073;-86
2021/09/16 02:54:56;;;;;;;46.88;17.95;;;;;;;6.48;100.00;101220.10;1761804;81;21126;-86
2021/09/16 02:57:22;;;;;;;44.77;18.60;;;;;;;6.47;100.00;101221.64;1793110;80;21679;-83
2021/09/16 02:59:50;;;;;;;45.63;18.30;;;;;;;6.47;100.00;101223.83;1793120;80;21029;-86
2021/09/16 03:02:16;;;;;;;48.10;19.60;;;;;;;6.48;100.00;101222.78;1669981;85;20976;-86
2021/09/16 03:04:42;;;;;;;46.13;17.65;;;;;;;6.49;100.00;101223.07;1710353;83;21172;-86
2021/09/16 03:07:07;;;;;;;50.17;19.25;;;;;;;6.47;100.00;101226.50;1710539;83;21350;-87
2021/09/16 03:09:33;;;;;;;59.33;20.52;;;;;;;6.48;100.00;101219.29;1710383;82;20887;-87
2021/09/16 03:11:59;;;;;;;52.10;18.80;;;;;;;6.51;100.00;101220.19;1710324;83;21088;-87
2021/09/16 03:14:25;;;;;;;54.67;19.10;;;;;;;6.51;100.00;101222.34;1710347;83;20899;-87
2021/09/16 03:16:51;;;;;;;49.50;19.80;;;;;;;6.54;100.00;101221.91;1710139;82;20874;-85
2021/09/16 03:19:17;;;;;;;53.13;19.60;;;;;;;6.53;100.00;101223.45;1710340;83;21951;-87
2021/09/16 03:21:43;;;;;;;45.45;19.87;;;;;;;6.55;100.00;101216.03;1710202;83;20903;-86
2021/09/16 03:24:08;;;;;;;52.60;18.82;;;;;;;6.55;100.00;101222.72;1710357;83;21600;-86
2021/09/16 03:26:34;;;;;;;42.53;19.00;;;;;;;6.57;100.00;101226.02;1710152;83;20871;-87
2021/09/16 03:29:01;;;;;;;54.70;19.82;;;;;;;6.58;100.00;101230.32;1710434;83;21058;-87
2021/09/16 03:31:27;;;;;;;49.40;20.02;;;;;;;6.62;100.00;101231.55;1710107;83;21937;-86
2021/09/16 03:33:53;;;;;;;51.58;19.80;;;;;;;6.67;100.00;101237.57;1710291;83;21439;-86
2021/09/16 03:36:19;;;;;;;55.58;20.55;;;;;;;6.72;100.00;101240.42;1710418;83;20852;-86
2021/09/16 03:38:45;;;;;;;45.03;20.17;;;;;;;6.76;100.00;101244.30;1710275;83;21030;-86
2021/09/16 03:41:10;;;;;;;55.12;20.85;;;;;;;6.83;100.00;101239.72;1712254;82;20875;-85
2021/09/16 03:43:36;;;;;;;52.88;20.00;;;;;;;6.89;100.00;101242.05;1724626;83;21152;-86
2021/09/16 03:46:02;;;;;;;49.53;20.35;;;;;;;7.06;100.00;101244.47;1698762;84;21730;-86
2021/09/16 03:48:28;;;;;;;57.85;20.12;;;;;;;7.06;100.00;101244.47;1698920;84;20990;-86
2021/09/16 03:50:54;;;;;;;45.98;19.52;;;;;;;7.16;100.00;101246.11;1698961;84;20951;-87
2021/09/16 03:53:20;;;;;;;53.78;20.77;;;;;;;7.24;100.00;101251.20;1698937;84;20911;-87
2021/09/16 03:55:45;;;;;;;57.23;20.55;;;;;;;7.33;100.00;101256.28;1698809;84;20927;-86
2021/09/16 03:58:11;;;;;;;53.63;20.32;;;;;;;7.44;100.00;101257.70;1698876;84;20919;-86
2021/09/16 04:00:37;;;;;;;51.80;20.05;;;;;;;7.55;100.00;101263.36;1698833;84;20975;-86
2021/09/16 04:03:11;;;;;;;50.80;19.65;;;;;;;7.66;100.00;101267.98;1699105;84;21577;-85
2021/09/16 04:05:40;;;;;;;48.55;20.40;;;;;;;7.79;100.00;101264.31;1747305;80;21047;-86
2021/09/16 04:08:06;;;;;;;43.33;19.65;;;;;;;7.93;100.00;101263.11;1785589;80;20968;-87
2021/09/16 04:10:38;;;;;;;64.15;19.55;;;;;;;8.09;100.00;101263.00;1794107;80;21011;-87
2021/09/16 04:13:06;;;;;;;44.88;19.10;;;;;;;8.26;100.00;101268.05;1793936;80;20944;-87
2021/09/16 04:15:32;;;;;;;48.33;19.32;;;;;;;8.54;100.00;101263.98;1794075;80;21083;-87
2021/09/16 04:17:58;;;;;;;51.95;19.35;;;;;;;8.82;100.00;101264.16;1794344;80;20976;-86
2021/09/16 04:20:24;;;;;;;48.35;19.23;;;;;;;9.12;100.00;101262.41;1794252;80;21598;-86
2021/09/16 04:22:50;;;;;;;46.00;18.95;;;;;;;9.56;100.00;101263.70;1794017;80;21606;-87
2021/09/16 04:25:17;;;;;;;53.05;18.85;;;;;;;9.90;100.00;101267.34;1794272;80;20957;-87
2021/09/16 04:27:42;;;;;;;59.83;21.15;;;;;;;10.13;100.00;101261.61;1793754;80;20960;-88
2021/09/16 04:30:10;;;;;;;52.27;19.77;;;;;;;10.49;100.00;101259.59;1768890;80;20897;-88
2021/09/16 04:32:37;;;;;;;43.08;19.27;;;;;;;11.63;100.00;101270.52;1794166;80;21232;-89
2021/09/16 04:35:06;;;;;;;37.93;16.70;;;;;;;12.66;100.00;101264.66;1793865;80;21153;-88
2021/09/16 04:37:33;;;;;;;35.35;16.50;;;;;;;15.22;100.00;101257.47;1793943;80;33529;-89
2021/09/16 04:39:59;;;;;;;41.23;15.25;;;;;;;15.22;100.00;101257.47;1794342;80;20940;-90
2021/09/16 04:42:25;;;;;;;38.15;14.53;;;;;;;16.65;100.00;101258.71;1783368;80;21047;-89
2021/09/16 04:44:52;;;;;;;41.60;15.05;;;;;;;17.44;100.00;101257.47;1761452;81;21041;-89
2021/09/16 04:47:18;;;;;;;38.48;14.65;;;;;;;18.28;100.00;101266.51;1793020;80;20959;-89
2021/09/16 04:49:44;;;;;;;46.70;14.73;;;;;;;18.81;100.00;101260.80;1761738;81;20863;-89
2021/09/16 04:52:10;;;;;;;36.28;13.65;;;;;;;19.48;100.00;101265.08;1793471;80;20840;-90
2021/09/16 04:54:36;;;;;;;47.75;14.55;;;;;;;20.06;100.00;101267.72;1759965;81;21718;-91
2021/09/16 04:57:02;;;;;;;36.33;13.65;;;;;;;20.51;100.00;101272.73;1777004;78;21095;-89
2021/09/16 04:59:28;;;;;;;30.35;12.98;;;;;;;21.36;100.00;101270.09;1792308;79;20972;-90
2021/09/16 05:01:54;;;;;;;34.03;12.45;;;;;;;22.13;96.00;101271.41;1794844;79;21128;-89
2021/09/16 05:04:20;;;;;;;38.58;13.32;;;;;;;23.30;93.79;101263.24;1790994;79;20840;-87
2021/09/16 05:06:46;;;;;;;36.45;12.98;;;;;;;24.64;76.22;101271.62;1791016;80;20966;-88
2021/09/16 05:09:12;;;;;;;31.07;12.85;;;;;;;25.56;65.02;101268.25;1759632;81;21082;-89
2021/09/16 05:11:42;;;;;;;30.40;14.15;;;;;;;26.16;56.03;101263.84;1790659;78;20938;-88
2021/09/16 05:14:12;;;;;;;39.08;14.15;;;;;;;26.03;52.10;101267.77;1759278;81;21010;-83
2021/09/16 05:16:38;;;;;;;29.20;14.23;;;;;;;25.78;49.42;101266.99;1786313;80;20990;-87
2021/09/16 05:19:04;;;;;;;32.05;13.80;;;;;;;25.40;47.43;101268.14;1759741;81;21037;-88
2021/09/16 05:21:30;;;;;;;32.23;12.47;;;;;;;24.40;47.42;101264.61;1790849;80;21856;-87
2021/09/16 05:23:56;;;;;;;33.40;12.93;;;;;;;23.25;48.79;101268.91;1759418;81;21046;-85
2021/09/16 05:26:22;;;;;;;33.28;13.40;;;;;;;22.40;49.96;101269.52;1790743;80;20891;-86
2021/09/16 05:28:48;;;;;;;32.93;12.68;;;;;;;21.51;51.37;101279.82;1759719;81;20911;-86
2021/09/16 05:31:14;;;;;;;32.00;12.25;;;;;;;20.87;56.28;101278.16;1790907;80;21613;-87
2021/09/16 05:33:40;;;;;;;30.77;12.58;;;;;;;21.08;67.39;101285.86;1759735;81;21078;-87
2021/09/16 05:36:06;;;;;;;37.17;12.18;;;;;;;22.11;74.12;101283.27;1790912;80;20998;-87
2021/09/16 05:38:32;;;;;;;24.92;9.90;;;;;;;23.78;68.27;101279.38;1759604;81;20990;-87
2021/09/16 05:40:58;;;;;;;27.55;9.75;;;;;;;25.06;57.31;101289.47;1791028;80;21623;-89
2021/09/16 05:43:24;;;;;;;25.50;9.95;;;;;;;25.67;50.81;101288.73;1764706;80;20872;-89
2021/09/16 05:45:50;;;;;;;25.17;9.28;;;;;;;27.01;48.11;101284.60;1797925;79;21093;-89
2021/09/16 05:48:16;;;;;;;19.65;9.53;;;;;;;28.60;44.26;101281.02;1796532;79;21031;-87
2021/09/16 05:50:42;;;;;;;30.80;9.13;;;;;;;29.75;38.20;101286.05;1786124;79;21039;-87
2021/09/16 05:53:10;;;;;;;23.73;9.18;;;;;;;30.73;36.74;101286.92;1788926;79;20891;-88
2021/09/16 05:55:39;;;;;;;20.70;9.05;;;;;;;31.26;33.62;101290.64;1798790;79;20976;-89
2021/09/16 05:58:04;;;;;;;19.00;8.75;;;;;;;31.51;34.33;101287.50;1800358;79;20976;-86
2021/09/16 06:00:29;;;;;;;25.88;9.08;;;;;;;32.38;31.52;101289.60;1792027;79;21524;-88
2021/09/16 06:02:55;;;;;;;25.08;9.75;;;;;;;32.49;30.47;101281.31;1795099;79;20848;-88
2021/09/16 06:05:21;;;;;;;17.70;9.03;;;;;;;32.96;30.40;101284.41;1802635;79;20876;-88
2021/09/16 06:07:47;;;;;;;20.40;9.80;;;;;;;33.75;30.53;101285.05;1802570;79;21167;-87
2021/09/16 06:10:14;;;;;;;16.15;8.93;;;;;;;34.91;29.45;101291.96;1802829;79;21148;-86
2021/09/16 06:12:42;;;;;;;22.50;9.78;;;;;;;35.63;26.50;101286.62;1802474;79;21507;-88
2021/09/16 06:15:10;;;;;;;22.90;9.45;;;;;;;36.01;25.38;101287.23;1802528;79;21511;-88
2021/09/16 06:17:36;;;;;;;20.52;9.30;;;;;;;36.22;25.35;101289.00;1802625;79;21063;-84
2021/09/16 06:20:05;;;;;;;22.60;9.48;;;;;;;36.84;24.80;101295.58;1770173;79;21581;-87
2021/09/16 06:22:31;;;;;;;24.20;10.10;;;;;;;37.38;23.74;101287.70;1797312;79;21327;-88
2021/09/16 06:24:56;;;;;;;18.48;9.78;;;;;;;37.93;23.71;101291.13;1797520;79;20996;-88
2021/09/16 06:27:22;;;;;;;37.45;19.48;;;;;;;38.49;22.53;101294.03;1797523;79;21633;-89
2021/09/16 06:29:48;;;;;;;37.70;20.60;;;;;;;38.88;21.39;101289.53;1797678;79;20904;-88
2021/09/16 06:32:14;;;;;;;35.13;16.42;;;;;;;38.47;20.39;101290.84;1797792;79;21729;-87
2021/09/16 06:34:40;;;;;;;37.90;20.80;;;;;;;37.93;20.26;101284.92;1797633;79;21145;-87
2021/09/16 06:37:08;;;;;;;47.00;24.65;;;;;;;37.24;20.40;101290.16;1792331;79;20952;-87
2021/09/16 06:39:34;;;;;;;54.20;27.60;;;;;;;36.70;21.44;101295.00;1797029;79;20980;-88
2021/09/16 06:42:00;;;;;;;41.42;21.42;;;;;;;37.58;21.07;101289.80;1797591;79;20947;-87
2021/09/16 06:44:26;;;;;;;36.38;20.70;;;;;;;37.92;20.03;101288.94;1791106;80;20865;-88
2021/09/16 06:46:54;;;;;;;37.88;18.90;;;;;;;37.91;20.82;101290.14;1790789;80;21032;-89
2021/09/16 06:49:20;;;;;;;27.73;16.87;;;;;;;38.38;20.03;101293.44;1790790;80;21061;-85
2021/09/16 06:51:46;;;;;;;27.93;13.60;;;;;;;39.06;19.94;101298.37;1790912;80;21011;-86
2021/09/16 06:54:14;;;;;;;24.15;14.30;;;;;;;39.90;19.13;101292.19;1791319;80;20869;-87
2021/09/16 06:56:40;;;;;;;27.95;15.45;;;;;;;40.09;19.18;101293.23;1697878;84;21563;-89
2021/09/16 06:59:08;;;;;;;24.43;13.13;;;;;;;41.05;18.82;101293.14;1606967;87;21166;-90
2021/09/16 07:01:35;;;;;;;21.35;12.58;;;;;;;41.97;17.49;101292.56;1544908;92;21147;-89
2021/09/16 07:04:01;;;;;;;17.02;10.68;;;;;;;42.01;16.81;101295.89;1565648;90;21089;-88
2021/09/16 07:06:27;;;;;;;13.08;9.38;;;;;;;40.81;16.78;101286.25;1567993;90;21105;-88
2021/09/16 07:08:53;;;;;;;12.45;8.40;;;;;;;41.17;17.64;101293.58;1566060;90;21123;-90
2021/09/16 07:11:19;;;;;;;16.75;9.23;;;;;;;41.97;17.34;101291.15;1565283;90;21302;-89
2021/09/16 07:13:45;;;;;;;17.45;8.93;;;;;;;42.02;16.70;101298.91;1565713;91;21458;-88
2021/09/16 07:16:11;;;;;;;12.75;6.67;;;;;;;41.33;16.05;101302.52;1566696;90;21010;-89
2021/09/16 07:18:37;;;;;;;8.70;6.35;;;;;;;40.86;16.54;101306.89;1566461;90;20986;-89
2021/09/16 07:21:03;;;;;;;11.22;5.95;;;;;;;40.91;16.36;101302.69;1566508;90;21061;-89
2021/09/16 07:23:30;;;;;;;10.78;5.80;;;;;;;41.11;16.45;101306.72;1595242;87;21187;-89
2021/09/16 07:25:56;;;;;;;7.55;5.47;;;;;;;41.15;16.17;101299.67;1620590;88;21544;-87
2021/09/16 07:28:22;;;;;;;9.95;6.00;;;;;;;40.27;15.83;101304.85;1620274;88;21053;-87
2021/09/16 07:30:48;;;;;;;10.30;6.03;;;;;;;39.17;16.22;101305.13;1620511;88;21595;-88
2021/09/16 07:33:14;;;;;;;10.23;5.97;;;;;;;37.85;17.03;101303.75;1620462;88;21584;-87
2021/09/16 07:35:41;;;;;;;15.70;6.15;;;;;;;38.09;17.29;101312.36;1620574;88;21100;-88
2021/09/16 07:38:07;;;;;;;10.63;6.28;;;;;;;38.01;17.84;101307.31;1620424;88;21037;-88
2021/09/16 07:40:33;;;;;;;11.70;6.40;;;;;;;38.02;17.41;101304.66;1620591;88;21094;-88
2021/09/16 07:42:59;;;;;;;17.67;7.17;;;;;;;38.37;17.58;101300.31;1623889;87;21175;-85
2021/09/16 07:45:26;;;;;;;14.23;6.62;;;;;;;39.61;17.32;101297.80;1600888;89;21076;-86
2021/09/16 07:47:52;;;;;;;10.13;6.90;;;;;;;41.03;16.79;101288.52;1600700;89;21301;-87
2021/09/16 07:50:19;;;;;;;11.45;7.42;;;;;;;41.84;15.03;101286.80;1601001;89;21076;-87
2021/09/16 07:52:45;;;;;;;12.85;6.33;;;;;;;40.71;15.67;101282.53;1607175;87;21584;-86
2021/09/16 07:55:12;;;;;;;8.98;5.12;;;;;;;41.41;15.44;101286.88;1673825;85;21084;-89
2021/09/16 07:57:38;;;;;;;7.20;4.55;;;;;;;41.44;15.28;101289.58;1687518;81;21064;-88
2021/09/16 08:00:05;;;;;;;7.75;4.60;;;;;;;41.71;14.92;101282.59;1755918;81;21038;-87
2021/09/16 08:02:30;;;;;;;8.80;4.90;;;;;;;42.17;14.33;101288.61;1726309;83;21057;-83
2021/09/16 08:04:56;;;;;;;6.03;5.28;;;;;;;41.28;13.88;101286.94;1763202;81;20927;-85
2021/09/16 08:07:22;;;;;;;7.22;5.58;;;;;;;39.65;14.61;101279.54;1726608;83;20942;-87
2021/09/16 08:09:48;;;;;;;7.15;4.80;;;;;;;39.38;16.02;101280.47;1762934;81;21024;-88
2021/09/16 08:12:15;;;;;;;10.30;5.08;;;;;;;40.48;15.26;101284.25;1763092;81;21074;-85
2021/09/16 08:14:41;;;;;;;8.80;3.92;;;;;;;40.16;14.46;101277.52;1726523;83;21069;-87
2021/09/16 08:17:07;;;;;;;4.78;4.37;;;;;;;40.56;14.98;101272.25;1762904;81;21025;-87
2021/09/16 08:19:39;;;;;;;8.15;4.70;;;;;;;40.84;14.34;101272.62;1762834;81;21053;-86
2021/09/16 08:22:01;;;;;;;9.83;4.22;;;;;;;40.38;14.07;101269.20;1725644;83;21049;-86
2021/09/16 08:24:28;;;;;;;4.00;3.67;;;;;;;39.03;14.54;101268.83;1763355;81;21123;-88
2021/09/16 08:26:53;;;;;;;5.90;4.35;;;;;;;39.23;15.28;101266.70;1705063;80;20985;-87
2021/09/16 08:29:19;;;;;;;5.75;3.45;;;;;;;39.68;14.74;101258.08;1707357;81;20891;-84
2021/09/16 08:31:45;;;;;;;4.00;3.58;;;;;;;40.65;14.73;101250.40;1763044;81;20971;-86
2021/09/16 08:34:11;;;;;;;5.62;4.00;;;;;;;41.27;14.31;101257.86;1779728;80;21462;-88
2021/09/16 08:36:37;;;;;;;4.75;3.80;;;;;;;41.28;13.85;101256.59;1816315;77;21146;-84
2021/09/16 08:39:03;;;;;;;5.65;3.95;;;;;;;41.04;13.40;101249.14;1790925;80;20997;-87
2021/09/16 08:41:29;;;;;;;4.60;3.70;;;;;;;40.21;14.18;101245.11;1791072;80;21043;-88
2021/09/16 08:43:57;;;;;;;5.55;3.75;;;;;;;40.21;14.10;101237.42;1812711;77;21573;-87
2021/09/16 08:46:23;;;;;;;6.65;3.42;;;;;;;41.18;14.16;101235.14;1847265;77;21014;-86
2021/09/16 08:48:49;;;;;;;7.60;3.62;;;;;;;41.92;13.77;101231.51;1847234;77;20891;-87
2021/09/16 08:51:15;;;;;;;7.30;3.72;;;;;;;42.19;12.97;101233.69;1847363;77;20833;-88
2021/09/16 08:53:44;;;;;;;6.30;3.75;;;;;;;41.12;13.21;101230.50;1847228;77;20995;-85
2021/09/16 08:56:10;;;;;;;10.72;3.30;;;;;;;41.13;13.74;101230.06;1847036;77;20996;-87
2021/09/16 08:58:37;;;;;;;4.75;3.15;;;;;;;41.03;13.46;101231.96;1847202;77;21679;-86
2021/09/16 09:01:03;;;;;;;7.00;3.75;;;;;;;40.56;13.84;101223.42;1847208;77;21744;-85
2021/09/16 09:03:30;;;;;;;5.25;3.08;;;;;;;40.42;13.62;101230.34;1846980;77;20865;-86
2021/09/16 09:05:56;;;;;;;5.80;2.77;;;;;;;39.94;13.91;101227.92;1847187;77;21495;-87
2021/09/16 09:08:24;;;;;;;5.50;2.70;;;;;;;39.91;13.86;101229.61;1847364;77;21035;-86
2021/09/16 09:10:58;;;;;;;6.47;2.60;;;;;;;40.11;13.82;101228.02;1847261;77;21566;-89
2021/09/16 09:13:41;;;;;;;6.10;2.80;;;;;;;39.74;13.82;101224.67;1846873;77;21031;-85
2021/09/16 09:16:07;;;;;;;5.17;2.40;;;;;;;39.63;13.65;101233.25;1843411;77;21447;-85
2021/09/16 09:18:48;;;;;;;4.08;2.33;;;;;;;38.47;14.34;101230.28;1847348;77;20975;-88
2021/09/16 09:21:17;;;;;;;5.53;2.40;;;;;;;38.12;14.54;101235.48;1730561;83;21519;-88
2021/09/16 09:23:54;;;;;;;3.65;2.00;;;;;;;37.05;14.86;101232.64;1729974;81;21019;-86
2021/09/16 09:26:36;;;;;;;5.45;2.12;;;;;;;36.75;15.47;101232.72;1705956;83;21123;-88
2021/09/16 09:29:13;;;;;;;2.62;1.55;;;;;;;35.98;15.95;101224.32;1705190;84;21060;-85
2021/09/16 09:31:53;;;;;;;4.33;2.10;;;;;;;35.65;16.37;101231.50;1705509;84;21071;-88
2021/09/16 09:34:32;;;;;;;4.37;1.95;;;;;;;34.78;16.58;101231.44;1649645;87;21161;-86
2021/09/16 09:37:17;;;;;;;5.40;1.82;;;;;;;33.69;17.00;101214.76;1649723;85;21189;-89
2021/09/16 09:39:47;;;;;;;3.22;1.80;;;;;;;32.97;17.98;101223.19;1649603;87;21994;-84
2021/09/16 09:42:27;;;;;;;3.00;1.90;;;;;;;33.13;17.99;101223.41;1622897;88;21041;-85
2021/09/16 09:44:57;;;;;;;1.80;1.40;;;;;;;32.91;18.13;101215.58;1579687;90;21088;-84
2021/09/16 09:47:46;;;;;;;3.08;1.67;;;;;;;33.08;17.85;101219.00;1530077;93;21160;-82
2021/09/16 09:50:23;;;;;;;2.72;1.72;;;;;;;32.76;18.02;101218.36;1530005;93;21604;-82
2021/09/16 09:52:52;;;;;;;9.05;1.87;;;;;;;31.31;18.53;101222.05;1529964;93;21441;-80
2021/09/16 09:55:23;;;;;;;5.85;1.95;;;;;;;29.55;20.10;101217.25;1530124;93;21588;-81
2021/09/16 09:58:02;;;;;;;3.83;1.80;;;;;;;28.88;21.35;101220.50;1538417;92;21196;-86
2021/09/16 10:00:28;;;;;;;3.67;2.22;;;;;;;28.85;21.88;101212.91;1533710;93;21607;-86
2021/09/16 10:02:55;;;;;;;3.27;1.67;;;;;;;28.99;21.85;101213.76;1559931;92;20900;-82
2021/09/16 10:05:37;;;;;;;4.28;1.60;;;;;;;29.16;21.54;101205.55;1534673;93;21118;-82
2021/09/16 10:08:12;;;;;;;8.50;2.17;;;;;;;29.31;21.63;101205.98;1577288;91;21056;-82
2021/09/16 10:10:45;;;;;;;6.83;1.60;;;;;;;29.40;21.72;101202.94;1580753;88;21064;-80
2021/09/16 10:13:17;;;;;;;9.00;1.90;;;;;;;29.03;22.28;101208.29;1560156;92;21129;-81
2021/09/16 10:15:39;;;;;;;7.85;1.65;;;;;;;28.56;22.04;101205.25;1559018;91;21543;-85
2021/09/16 10:18:07;;;;;;;2.98;1.67;;;;;;;28.37;22.45;101205.47;1568922;87;21124;-81
2021/09/16 10:20:33;;;;;;;6.70;2.10;;;;;;;28.11;22.73;101206.14;1587824;90;21081;-82
2021/09/16 10:23:02;;;;;;;6.67;2.10;;;;;;;27.71;22.79;101205.04;1588155;90;20942;-84
2021/09/16 10:25:29;;;;;;;5.00;1.77;;;;;;;27.25;23.65;101208.94;1585617;90;21043;-81
2021/09/16 10:28:06;;;;;;;5.78;2.05;;;;;;;27.11;24.48;101200.47;1581356;90;21087;-82
2021/09/16 10:30:40;;;;;;;11.85;1.92;;;;;;;26.97;24.51;101207.02;1584792;90;21180;-88
2021/09/16 10:33:11;;;;;;;4.37;1.90;;;;;;;26.73;24.57;101207.41;1503941;95;21063;-83
2021/09/16 10:36:00;;;;;;;7.65;2.08;;;;;;;26.46;24.95;101207.64;1503969;95;21170;-79
2021/09/16 10:38:45;;;;;;;8.93;1.90;;;;;;;26.18;25.15;101203.52;1508783;94;21213;-84
2021/09/16 10:41:34;;;;;;;4.45;2.12;;;;;;;26.16;25.48;101207.78;1550155;89;21081;-82
2021/09/16 10:44:05;;;;;;;12.28;2.25;;;;;;;26.09;25.53;101202.86;1600354;89;21186;-84
2021/09/16 10:46:49;;;;;;;5.62;2.30;;;;;;;25.99;26.40;101199.20;1600734;88;21049;-82
2021/09/16 10:49:28;;;;;;;5.37;2.00;;;;;;;26.16;26.13;101203.06;1600687;89;21249;-79
2021/09/16 10:52:11;;;;;;;7.55;2.00;;;;;;;26.11;25.44;101199.16;1600764;89;21035;-81
2021/09/16 10:54:42;;;;;;;3.27;2.02;;;;;;;25.73;25.56;101197.61;1578117;91;21572;-84
2021/09/16 10:57:32;;;;;;;8.80;2.40;;;;;;;25.52;26.35;101197.77;1577925;91;21133;-86
2021/09/16 11:00:08;;;;;;;6.53;1.77;;;;;;;25.47;26.41;101196.64;1576514;91;21041;-86
2021/09/16 11:02:46;;;;;;;6.65;2.30;;;;;;;25.52;26.97;101194.20;1577729;91;21073;-88
2021/09/16 11:05:20;;;;;;;5.85;1.90;;;;;;;25.79;26.60;101192.07;1577713;89;21113;-83
2021/09/16 11:07:52;;;;;;;7.85;2.30;;;;;;;26.15;26.55;101187.64;1577358;91;21052;-80
2021/09/16 11:10:30;;;;;;;5.58;2.17;;;;;;;26.57;26.75;101193.35;1605757;87;21631;-80
2021/09/16 11:13:25;;;;;;;6.80;2.02;;;;;;;26.38;26.12;101185.10;1615037;88;21104;-85
2021/09/16 11:15:54;;;;;;;8.45;1.87;;;;;;;26.13;26.50;101189.95;1613712;89;21086;-80
2021/09/16 11:18:21;;;;;;;5.53;2.30;;;;;;;26.10;25.86;101189.27;1616786;88;21096;-76